Latest Weather Observations for Glen Innes Airport

IDN60801

Issued at 11:33 am EST Saturday 2 July 2016 (issued every 30 minutes, with the page automatically refreshed every 10 minutes)

About weather observations | Map of weather stations | Latest weather observations for NSW | Other Formats
Station Details ID: 056243 Name: GLEN INNES AIRPORT AWS Lat: -29.68 Lon: 151.69 Height: 1044.3 m
Data from the previous 72 hours. | See also: Recent months at Glen Innes Airport
Date/Time
EST
Temp
°C
App
Temp
°C
Dew
Point
°C
Rel
Hum
%
Delta-T
°C
Wind Press
QNH
hPa
Press
MSL
hPa
Rain since
9am
mm
Dir  Spd
km/h
Gust
km/h
Spd
kts
Gust
kts
02/11:30am 13.8 10.1 -4.8 27 7.4 W 6 13 3 7 1024.6 1025.3 0.0
02/11:00am 12.5 8.8 -4.1 31 6.6 N 6 11 3 6 1025.0 1025.8 0.0
02/10:30am 11.6 8.3 0.1 45 5.0 E 7 13 4 7 1025.3 1026.0 0.0
02/10:00am 9.5 5.5 0.4 53 3.9 ESE 11 13 6 7 1025.3 1026.0 0.0
02/09:30am 7.2 3.9 0.4 62 2.9 ESE 7 11 4 6 1025.3 1026.0 0.0
02/09:00am 4.2 0.3 0.9 79 1.4 ESE 11 13 6 7 1025.1 1025.9 0.0
02/08:30am 1.5 -2.2 0.2 91 0.5 ESE 9 9 5 5 1024.9 1025.6 0.0
02/08:00am -2.0 -6.9 -3.0 93 0.3 E 13 15 7 8 1024.7 1025.4 0.0
02/07:30am -3.7 -8.3 -4.2 96 0.0 ESE 11 13 6 7 1024.5 1025.2 0.0
02/07:00am -5.3 -10.8 -5.8 96 -0.1 ESE 15 17 8 9 1024.1 1024.8 0.0
02/06:30am -6.8 -11.4 -7.9 92 0.1 SE 9 11 5 6 1023.7 1024.4 0.0
02/06:00am -6.6 -11.1 -7.3 95 0.0 SE 9 11 5 6 1023.5 1024.2 0.0
02/05:30am -6.8 -11.7 -7.6 94 0.0 E 11 13 6 7 1023.3 1023.9 0.0
02/05:00am -7.5 -10.5 -8.7 91 0.1 CALM 0 0 0 0 1023.0 1023.7 0.0
02/04:30am -6.9 -11.1 -7.8 93 0.0 ESE 7 9 4 5 1022.7 1023.4 0.0
02/04:00am -6.3 -10.2 -7.0 95 0.0 SE 6 7 3 4 1022.6 1023.3 0.0
02/03:30am -6.1 -9.7 -6.9 94 0.0 SSE 4 9 2 5 1022.6 1023.3 0.0
02/03:29am -5.9 -9.1 -6.7 94 0.0 SSE 2 9 1 5 1022.6 1023.3 0.0
02/03:00am -5.2 -7.9 -5.7 96 -0.1 CALM 0 0 0 0 1022.8 1023.5 0.0
02/02:57am -5.2 -7.9 -5.7 96 -0.1 CALM 0 0 0 0 1022.8 1023.5 0.0
02/02:30am -5.0 -7.7 -5.5 96 0.0 CALM 0 0 0 0 1022.6 1023.3 0.0
02/02:00am -5.6 -8.3 -6.4 94 0.0 CALM 0 0 0 0 1022.6 1023.3 0.0
02/01:59am -5.4 -8.1 -6.2 94 0.0 CALM 0 0 0 0 1022.6 1023.3 0.0
02/01:34am -5.3 -8.0 -6.4 92 0.1 CALM 0 0 0 0 1022.7 1023.4 0.0
02/01:30am -5.8 -8.6 -6.6 94 0.0 CALM 0 0 0 0 1022.7 1023.4 0.0
02/01:24am -3.1 -5.5 -3.5 97 0.0 CALM 0 0 0 0 1022.7 1023.4 0.0
02/01:00am -4.6 -7.3 -5.7 92 0.2 CALM 0 0 0 0 1022.6 1023.3 0.0
02/12:30am -3.4 -5.9 -3.9 96 0.0 CALM 0 0 0 0 1022.4 1023.0 0.0
02/12:00am -3.5 -7.8 -4.8 91 0.3 W 9 11 5 6 1022.4 1023.0 0.0
 
Date/Time
EST
Temp
°C
App
Temp
°C
Dew
Point
°C
Rel
Hum
%
Delta-T
°C
Wind Press
QNH
hPa
Press
MSL
hPa
Rain since
9am
mm
Dir  Spd
km/h
Gust
km/h
Spd
kts
Gust
kts
01/11:30pm -2.2 -4.7 -3.9 88 0.5 CALM 0 6 0 3 1022.6 1023.3 0.0
01/11:00pm -1.7 -4.3 -4.5 81 0.9 CALM 0 0 0 0 1022.7 1023.4 0.0
01/10:30pm -0.6 -4.1 -3.1 83 0.9 W 6 15 3 8 1022.5 1023.1 0.0
01/10:00pm -1.1 -5.8 -5.0 75 1.3 SW 11 13 6 7 1022.7 1023.4 0.0
01/09:30pm 1.7 -2.1 -0.7 84 0.9 WSW 9 11 5 6 1022.7 1023.4 0.0
01/09:00pm 0.2 -2.0 -1.9 86 0.8 CALM 0 0 0 0 1022.8 1023.5 0.0
01/08:30pm 2.3 -1.1 -0.4 82 1.1 W 7 11 4 6 1022.9 1023.6 0.0
01/08:00pm 3.2 -0.1 -0.1 79 1.3 WNW 7 17 4 9 1022.5 1023.1 0.0
01/07:30pm 3.1 -0.1 -0.4 78 1.4 NW 6 15 3 8 1022.3 1022.9 0.0
01/07:00pm 5.1 -0.9 0.9 74 1.7 W 22 32 12 17 1021.6 1022.2 0.0
01/06:30pm 5.3 -1.1 0.9 73 1.8 W 24 32 13 17 1021.0 1021.7 0.0
01/06:00pm 5.1 0.0 0.5 72 1.9 WNW 17 20 9 11 1020.9 1021.6 0.0
01/05:30pm 6.3 1.9 0.2 65 2.5 W 13 19 7 10 1020.5 1021.1 0.0
01/05:00pm 7.7 1.6 0.7 61 3.0 W 22 32 12 17 1019.7 1020.3 0.0
01/04:30pm 9.0 1.8 0.7 56 3.6 W 28 43 15 23 1019.1 1019.6 0.0
01/04:00pm 9.7 1.9 1.4 56 3.7 W 32 41 17 22 1018.8 1019.4 0.0
01/03:30pm 10.2 2.2 1.6 55 3.8 W 33 44 18 24 1018.8 1019.4 0.0
01/03:14pm 10.3 1.5 1.2 53 4.0 WSW 37 56 20 30 1018.9 1019.5 0.0
01/03:00pm 10.7 2.6 1.3 52 4.2 W 33 46 18 25 1018.9 1019.5 0.0
01/02:53pm 10.6 1.8 1.2 52 4.2 W 37 56 20 30 1018.8 1019.4 0.0
01/02:30pm 10.8 1.1 0.8 50 4.4 W 41 54 22 29 1018.7 1019.3 0.0
01/02:00pm 10.8 0.5 0.2 48 4.6 W 44 57 24 31 1018.5 1019.1 0.0
01/01:30pm 11.0 1.4 1.3 51 4.3 W 41 54 22 29 1018.5 1019.1 0.0
01/01:00pm 11.4 1.4 1.1 49 4.6 W 43 63 23 34 1018.4 1018.9 0.0
01/12:30pm 10.7 0.6 1.5 53 4.1 W 44 63 24 34 1018.7 1019.3 0.0
01/12:01pm 10.8 1.8 2.6 57 3.8 W 39 65 21 35 1019.2 1019.7 0.0
01/12:00pm 10.6 1.7 2.9 59 3.5 W 39 54 21 29 1019.2 1019.7 0.0
01/11:30am 10.0 1.0 2.6 60 3.4 W 39 54 21 29 1019.6 1020.2 0.0
01/11:15am 9.7 0.4 3.0 63 3.1 WSW 41 59 22 32 1019.8 1020.4 0.0
01/11:00am 9.9 1.1 3.6 65 2.9 W 39 54 21 29 1019.9 1020.5 0.0
01/10:30am 9.1 0.6 2.9 65 2.8 WSW 37 52 20 28 1020.2 1020.8 0.0
01/10:02am 8.7 1.1 2.7 66 2.7 W 32 52 17 28 1020.3 1020.9 0.0
01/10:00am 9.0 1.4 3.0 66 2.7 W 32 43 17 23 1020.3 1020.9 0.0
01/09:30am 7.9 1.4 2.4 68 2.4 WSW 26 43 14 23 1020.3 1020.4 0.0
01/09:00am 7.0 0.1 2.5 73 2.0 W 28 37 15 20 1020.2 1020.3 0.2
01/08:30am 6.2 0.8 2.3 76 1.7 WSW 20 30 11 16 1020.3 1020.4 0.2
01/08:00am 5.0 -0.4 1.5 78 1.5 W 19 26 10 14 1020.2 1020.3 0.2
01/07:30am 3.9 -0.4 0.9 81 1.2 W 13 17 7 9 1020.0 1020.1 0.2
01/07:00am 3.2 -2.0 0.4 82 1.1 W 17 22 9 12 1019.7 1019.8 0.0
01/06:30am 3.3 -1.8 0.7 83 1.1 W 17 24 9 13 1019.4 1019.5 0.0
01/06:00am 3.0 -2.6 0.1 81 1.2 W 19 28 10 15 1019.2 1019.2 0.0
01/05:30am 2.9 -1.9 0.3 83 1.0 W 15 24 8 13 1019.1 1019.1 0.0
01/05:00am 2.5 -1.6 -0.3 82 1.1 W 11 17 6 9 1018.8 1018.9 0.0
01/04:30am 2.8 -1.7 0.0 82 1.1 W 13 17 7 9 1018.8 1018.9 0.0
01/04:00am 2.5 -2.4 -0.4 81 1.1 W 15 20 8 11 1018.8 1018.9 0.0
01/03:30am 2.9 -1.9 0.3 83 1.0 W 15 22 8 12 1018.9 1019.0 0.0
01/03:00am 2.6 -2.2 0.3 85 0.9 W 15 20 8 11 1019.2 1019.2 0.0
01/02:30am 2.6 -1.8 0.3 85 0.9 W 13 20 7 11 1019.4 1019.5 0.0
01/02:00am 2.9 -1.5 0.6 85 0.9 WNW 13 17 7 9 1019.4 1019.5 0.0
01/01:30am 1.9 -2.2 0.1 88 0.7 NW 11 13 6 7 1019.4 1019.5 0.0
01/01:00am 2.3 -2.2 0.0 85 0.9 NW 13 17 7 9 1019.7 1019.8 0.0
01/12:30am 2.8 -1.5 0.7 86 0.9 WNW 13 15 7 8 1019.8 1019.9 0.0
01/12:00am 0.7 -1.3 -0.2 94 0.3 CALM 0 0 0 0 1019.9 1020.0 0.0
 
Date/Time
EST
Temp
°C
App
Temp
°C
Dew
Point
°C
Rel
Hum
%
Delta-T
°C
Wind Press
QNH
hPa
Press
MSL
hPa
Rain since
9am
mm
Dir  Spd
km/h
Gust
km/h
Spd
kts
Gust
kts
30/11:30pm 0.8 -1.2 -0.3 92 0.4 CALM 0 0 0 0 1020.0 1020.1 0.0
30/11:00pm 1.9 0.0 0.4 90 0.6 CALM 0 0 0 0 1020.0 1020.1 0.0
30/10:30pm 1.2 -1.4 -1.4 83 1.0 WSW 2 9 1 5 1020.4 1020.5 0.0
30/10:00pm 3.5 -1.2 1.2 85 0.9 WNW 15 17 8 9 1020.5 1020.6 0.0
30/09:30pm 2.9 -1.0 1.1 88 0.7 NW 11 17 6 9 1020.6 1020.7 0.0
30/09:00pm 1.6 -0.4 -0.2 88 0.7 CALM 0 6 0 3 1020.9 1021.1 0.0
30/08:30pm 1.9 -0.1 0.0 87 0.8 CALM 0 0 0 0 1020.9 1021.1 0.0
30/08:00pm 2.5 -0.6 0.1 84 1.0 NNW 6 7 3 4 1021.0 1021.2 0.0
30/07:30pm 3.1 0.0 0.2 81 1.2 NNW 6 9 3 5 1021.2 1021.3 0.0
30/07:00pm 3.7 0.0 -0.1 76 1.5 NW 9 13 5 7 1021.0 1021.2 0.0
30/06:30pm 4.8 0.4 0.6 74 1.7 NW 13 15 7 8 1020.9 1021.1 0.0
30/06:00pm 5.7 1.7 0.7 70 2.1 WNW 11 13 6 7 1020.6 1020.7 0.0
30/05:30pm 6.4 2.0 0.5 66 2.5 WNW 13 17 7 9 1020.7 1020.8 0.0
30/05:00pm 7.7 3.3 0.2 59 3.2 NW 13 17 7 9 1020.4 1020.5 0.0
30/04:30pm 8.7 2.9 -0.3 53 3.8 WNW 20 24 11 13 1020.6 1020.7 0.0
30/04:00pm 9.4 3.1 -0.8 49 4.3 WNW 22 32 12 17 1020.9 1021.1 0.0
30/03:30pm 9.6 3.8 0.0 51 4.1 WNW 20 26 11 14 1020.8 1020.9 0.0
30/03:00pm 9.9 3.4 0.3 51 4.1 WNW 24 30 13 16 1020.9 1021.1 0.0
30/02:30pm 10.6 4.7 -0.5 46 4.7 WNW 20 26 11 14 1021.0 1021.2 0.0
30/02:00pm 10.8 3.2 -1.9 41 5.2 NW 28 35 15 19 1021.0 1021.2 0.0
30/01:30pm 11.1 3.4 -2.7 38 5.6 NW 28 39 15 21 1021.6 1021.7 0.0
30/01:00pm 11.5 4.6 -2.3 38 5.7 NW 24 35 13 19 1022.2 1022.3 0.0
30/12:30pm 12.6 5.9 1.3 46 5.1 NW 26 33 14 18 1022.5 1022.6 0.0
30/12:00pm 12.0 4.5 -1.2 40 5.6 NW 28 41 15 22 1023.1 1023.3 0.0
30/11:30am 11.3 4.3 -0.8 43 5.2 NW 26 35 14 19 1023.9 1024.1 0.0
30/11:00am 10.8 3.8 -0.6 45 4.8 NW 26 32 14 17 1024.5 1024.7 0.0
30/10:30am 11.1 5.6 1.6 52 4.3 NNW 20 30 11 16 1024.8 1025.0 0.0
30/10:00am 9.4 5.4 2.9 64 2.9 NW 13 17 7 9 1024.9 1025.1 0.0
30/09:30am 8.3 5.9 4.1 75 2.0 N 6 11 3 6 1025.0 1025.2 0.0
30/09:00am 5.1 3.6 3.0 86 0.9 CALM 0 0 0 0 1024.9 1025.1 0.0
30/08:30am 2.3 -0.6 1.3 93 0.4 E 6 7 3 4 1024.8 1025.0 0.0
30/08:00am -0.4 -3.7 -1.2 94 0.3 ESE 6 7 3 4 1024.7 1024.9 0.0
30/07:30am -2.6 -6.7 -3.1 96 0.1 ESE 9 9 5 5 1024.6 1024.8 0.0
30/07:00am -4.5 -8.8 -5.0 96 0.0 ESE 9 13 5 7 1024.4 1024.6 0.0
30/06:30am -5.1 -9.1 -5.9 94 0.0 ESE 7 9 4 5 1024.3 1024.5 0.0
30/06:00am -4.3 -9.0 -5.0 95 0.0 ESE 11 13 6 7 1024.0 1024.2 0.0
30/05:30am -4.0 -9.0 -4.7 95 0.1 ESE 13 15 7 8 1023.9 1024.1 0.0
30/05:00am -4.5 -8.9 -5.5 93 0.1 ESE 9 13 5 7 1023.8 1024.0 0.0
30/04:30am -4.4 -9.1 -5.5 92 0.2 E 11 13 6 7 1023.9 1024.1 0.0
30/04:00am -3.7 -8.7 -4.5 94 0.1 E 13 15 7 8 1024.0 1024.2 0.0
30/03:30am -3.9 -8.2 -4.7 94 0.1 E 9 11 5 6 1024.3 1024.5 0.0
30/03:00am -4.0 -8.7 -5.0 93 0.2 E 11 13 6 7 1024.5 1024.7 0.0
30/02:30am -4.1 -8.4 -4.9 94 0.1 ESE 9 11 5 6 1024.7 1024.9 0.0
30/02:00am -3.8 -8.5 -4.8 93 0.2 E 11 13 6 7 1025.0 1025.2 0.0
30/01:30am -3.5 -6.4 -4.5 93 0.2 ESE 2 7 1 4 1025.3 1025.5 0.0
30/01:00am -3.6 -7.5 -4.7 92 0.2 ESE 7 7 4 4 1025.5 1025.7 0.0
30/12:30am -3.2 -7.4 -4.0 94 0.1 ESE 9 13 5 7 1025.7 1025.9 0.0
30/12:00am -3.9 -7.9 -5.3 90 0.3 SE 7 9 4 5 1025.7 1025.9 0.0
 
Date/Time
EST
Temp
°C
App
Temp
°C
Dew
Point
°C
Rel
Hum
%
Delta-T
°C
Wind Press
QNH
hPa
Press
MSL
hPa
Rain since
9am
mm
Dir  Spd
km/h
Gust
km/h
Spd
kts
Gust
kts
29/11:30pm -3.7 -7.7 -5.4 88 0.4 ESE 7 9 4 5 1026.0 1026.3 0.0
29/11:00pm -2.5 -8.2 -3.6 92 0.3 ENE 17 17 9 9 1026.5 1026.7 0.0
29/10:30pm -2.7 -6.9 -4.0 91 0.3 ESE 9 11 5 6 1026.4 1026.6 0.0
29/10:00pm -2.2 -5.8 -3.5 91 0.3 SE 6 7 3 4 1026.2 1026.5 0.0
29/09:30pm -2.3 -6.1 -3.6 91 0.3 SE 7 13 4 7 1026.4 1026.6 0.0
29/09:00pm -2.0 -6.2 -4.0 86 0.6 SSE 9 11 5 6 1026.5 1026.7 0.0
29/08:30pm -0.1 -2.8 -2.3 85 0.8 SE 2 7 1 4 1026.6 1026.8 0.0
29/08:00pm 0.1 -3.6 -2.8 81 1.0 SE 7 7 4 4 1026.7 1026.9 0.0
29/07:30pm 0.5 -3.5 -2.4 81 1.1 ESE 9 11 5 6 1026.7 1026.9 0.0
29/07:00pm 0.7 -3.3 -2.3 80 1.1 E 9 11 5 6 1026.6 1026.8 0.0
29/06:30pm 2.5 -1.3 -3.4 65 2.1 WSW 7 9 4 5 1026.4 1026.6 0.0
29/06:00pm 5.8 1.9 -1.6 59 2.9 W 9 11 5 6 1026.2 1026.5 0.0
29/05:30pm 6.1 2.2 -1.5 58 3.0 W 9 11 5 6 1026.0 1026.3 0.0
29/05:00pm 8.1 3.4 -1.7 50 3.9 WNW 13 15 7 8 1025.8 1026.0 0.0
29/04:30pm 11.9 8.1 -3.8 33 6.3 W 7 9 4 5 1025.7 1025.9 0.0
29/04:00pm 13.0 9.0 -5.5 27 7.2 WNW 7 11 4 6 1025.7 1025.9 0.0
29/03:30pm 13.6 9.9 -4.5 28 7.3 WNW 6 11 3 6 1025.6 1025.8 0.0
29/03:00pm 13.3 8.7 -4.3 29 7.0 WSW 11 15 6 8 1025.4 1025.6 0.0
29/02:30pm 14.3 10.9 -4.9 26 7.7 NNW 4 13 2 7 1025.3 1025.5 0.0
29/02:00pm 13.3 8.7 -4.3 29 7.0 WNW 11 20 6 11 1025.3 1025.5 0.0
29/01:30pm 13.4 9.4 -2.5 33 6.7 WNW 9 15 5 8 1025.4 1025.6 0.0
29/01:00pm 13.1 10.5 -2.0 35 6.3 NNE 2 9 1 5 1025.5 1025.7 0.0
29/12:30pm 13.0 9.5 -1.7 36 6.2 NNW 7 17 4 9 1026.0 1026.3 0.0
29/12:00pm 12.3 9.0 -0.9 40 5.6 ENE 6 15 3 8 1026.5 1026.7 0.0

Other Formats:

Comma delimited format used in spreadsheet applications
http://www.bom.gov.au/fwo/IDN60801/IDN60801.94588.axf

JavaScript Object Notation format (JSON) in row-major order
http://www.bom.gov.au/fwo/IDN60801/IDN60801.94588.json